sensor_id;sensor_type;location;lat;lon;timestamp;pressure;altitude;pressure_sealevel;temperature;humidity
44349;BME280;30068;50.986;4.564;2023-02-02T00:01:22;102413.69;;;17.03;55.09
44349;BME280;30068;50.986;4.564;2023-02-02T00:03:48;102417.34;;;17.02;55.43
44349;BME280;30068;50.986;4.564;2023-02-02T00:06:17;102408.06;;;16.94;55.55
44349;BME280;30068;50.986;4.564;2023-02-02T00:08:42;102414.19;;;16.96;55.43
44349;BME280;30068;50.986;4.564;2023-02-02T00:11:07;102409.78;;;16.95;55.42
44349;BME280;30068;50.986;4.564;2023-02-02T00:13:33;102421.56;;;16.94;55.50
44349;BME280;30068;50.986;4.564;2023-02-02T00:15:58;102410.53;;;16.97;55.24
44349;BME280;30068;50.986;4.564;2023-02-02T00:18:23;102421.81;;;16.91;55.35
44349;BME280;30068;50.986;4.564;2023-02-02T00:20:49;102421.34;;;16.86;55.53
44349;BME280;30068;50.986;4.564;2023-02-02T00:23:14;102419.38;;;16.88;55.64
44349;BME280;30068;50.986;4.564;2023-02-02T00:25:40;102419.75;;;16.84;55.49
44349;BME280;30068;50.986;4.564;2023-02-02T00:28:05;102413.34;;;16.96;55.28
44349;BME280;30068;50.986;4.564;2023-02-02T00:30:30;102422.81;;;16.90;55.43
44349;BME280;30068;50.986;4.564;2023-02-02T00:32:55;102418.16;;;16.81;55.56
44349;BME280;30068;50.986;4.564;2023-02-02T00:35:21;102419.16;;;16.80;55.56
44349;BME280;30068;50.986;4.564;2023-02-02T00:37:46;102418.63;;;16.86;55.53
44349;BME280;30068;50.986;4.564;2023-02-02T00:40:11;102412.56;;;16.73;55.62
44349;BME280;30068;50.986;4.564;2023-02-02T00:42:36;102411.69;;;16.73;55.75
44349;BME280;30068;50.986;4.564;2023-02-02T00:45:02;102411.06;;;16.80;55.52
44349;BME280;30068;50.986;4.564;2023-02-02T00:47:40;102421.47;;;16.85;55.42
44349;BME280;30068;50.986;4.564;2023-02-02T00:50:05;102417.81;;;16.75;55.79
44349;BME280;30068;50.986;4.564;2023-02-02T00:52:30;102409.50;;;16.67;56.09
44349;BME280;30068;50.986;4.564;2023-02-02T00:54:56;102414.75;;;16.79;55.78
44349;BME280;30068;50.986;4.564;2023-02-02T00:57:22;102415.41;;;16.72;55.95
44349;BME280;30068;50.986;4.564;2023-02-02T00:59:47;102417.25;;;16.71;55.68
44349;BME280;30068;50.986;4.564;2023-02-02T01:02:12;102405.94;;;16.77;55.56
44349;BME280;30068;50.986;4.564;2023-02-02T01:04:38;102409.63;;;16.65;56.07
44349;BME280;30068;50.986;4.564;2023-02-02T01:07:03;102412.09;;;16.68;56.00
44349;BME280;30068;50.986;4.564;2023-02-02T01:09:28;102413.66;;;16.59;56.21
44349;BME280;30068;50.986;4.564;2023-02-02T01:11:54;102412.09;;;16.57;56.17
44349;BME280;30068;50.986;4.564;2023-02-02T01:14:19;102413.81;;;16.69;55.83
44349;BME280;30068;50.986;4.564;2023-02-02T01:16:44;102408.66;;;16.55;56.15
44349;BME280;30068;50.986;4.564;2023-02-02T01:19:11;102421.16;;;16.56;56.17
44349;BME280;30068;50.986;4.564;2023-02-02T01:21:36;102418.44;;;16.78;55.69
44349;BME280;30068;50.986;4.564;2023-02-02T01:24:02;102424.19;;;16.74;55.60
44349;BME280;30068;50.986;4.564;2023-02-02T01:26:27;102423.84;;;16.67;55.97
44349;BME280;30068;50.986;4.564;2023-02-02T01:28:52;102417.88;;;16.64;55.93
44349;BME280;30068;50.986;4.564;2023-02-02T01:31:18;102416.53;;;16.47;56.54
44349;BME280;30068;50.986;4.564;2023-02-02T01:33:44;102414.28;;;16.52;56.70
44349;BME280;30068;50.986;4.564;2023-02-02T01:36:13;102411.38;;;16.55;56.66
44349;BME280;30068;50.986;4.564;2023-02-02T01:38:39;102420.47;;;16.43;56.79
44349;BME280;30068;50.986;4.564;2023-02-02T01:41:06;102426.28;;;16.59;56.63
44349;BME280;30068;50.986;4.564;2023-02-02T01:46:06;102427.41;;;16.45;56.73
44349;BME280;30068;50.986;4.564;2023-02-02T01:48:34;102432.31;;;16.63;56.63
44349;BME280;30068;50.986;4.564;2023-02-02T01:51:00;102427.06;;;16.61;56.39
44349;BME280;30068;50.986;4.564;2023-02-02T01:53:27;102425.69;;;16.55;56.61
44349;BME280;30068;50.986;4.564;2023-02-02T01:55:52;102426.09;;;16.51;56.49
44349;BME280;30068;50.986;4.564;2023-02-02T01:58:19;102426.44;;;16.46;56.75
44349;BME280;30068;50.986;4.564;2023-02-02T02:00:46;102427.53;;;16.66;56.25
44349;BME280;30068;50.986;4.564;2023-02-02T02:03:13;102433.06;;;16.65;56.14
44349;BME280;30068;50.986;4.564;2023-02-02T02:06:21;102426.09;;;16.40;56.67
44349;BME280;30068;50.986;4.564;2023-02-02T02:08:33;102417.72;;;16.65;56.45
44349;BME280;30068;50.986;4.564;2023-02-02T02:10:59;102430.63;;;16.62;56.24
44349;BME280;30068;50.986;4.564;2023-02-02T02:13:25;102432.16;;;16.75;55.72
44349;BME280;30068;50.986;4.564;2023-02-02T02:16:23;102433.66;;;16.68;55.81
44349;BME280;30068;50.986;4.564;2023-02-02T02:27:10;102437.22;;;16.46;56.48
44349;BME280;30068;50.986;4.564;2023-02-02T02:29:56;102420.09;;;16.36;56.46
44349;BME280;30068;50.986;4.564;2023-02-02T02:35:01;102428.16;;;16.47;56.32
44349;BME280;30068;50.986;4.564;2023-02-02T02:40:54;102431.25;;;16.43;56.51
44349;BME280;30068;50.986;4.564;2023-02-02T02:43:05;102432.44;;;16.50;56.19
44349;BME280;30068;50.986;4.564;2023-02-02T02:45:33;102438.56;;;16.41;56.17
44349;BME280;30068;50.986;4.564;2023-02-02T02:47:59;102429.66;;;16.29;56.81
44349;BME280;30068;50.986;4.564;2023-02-02T02:50:26;102429.53;;;16.42;56.62
44349;BME280;30068;50.986;4.564;2023-02-02T02:52:55;102429.50;;;16.53;55.56
44349;BME280;30068;50.986;4.564;2023-02-02T02:55:22;102431.13;;;16.44;56.12
44349;BME280;30068;50.986;4.564;2023-02-02T02:58:03;102442.00;;;16.32;56.58
44349;BME280;30068;50.986;4.564;2023-02-02T03:00:47;102441.31;;;16.30;56.44
44349;BME280;30068;50.986;4.564;2023-02-02T03:06:07;102428.44;;;16.44;56.13
44349;BME280;30068;50.986;4.564;2023-02-02T03:08:57;102421.69;;;16.28;56.76
44349;BME280;30068;50.986;4.564;2023-02-02T03:11:20;102427.28;;;16.47;56.27
44349;BME280;30068;50.986;4.564;2023-02-02T03:13:45;102430.38;;;16.42;56.18
44349;BME280;30068;50.986;4.564;2023-02-02T03:16:10;102435.16;;;16.39;55.88
44349;BME280;30068;50.986;4.564;2023-02-02T03:18:36;102438.34;;;16.44;55.69
44349;BME280;30068;50.986;4.564;2023-02-02T03:21:01;102441.16;;;16.42;55.80
44349;BME280;30068;50.986;4.564;2023-02-02T03:23:26;102440.19;;;16.32;56.03
44349;BME280;30068;50.986;4.564;2023-02-02T03:25:52;102443.59;;;16.45;55.64
44349;BME280;30068;50.986;4.564;2023-02-02T03:28:17;102440.53;;;16.39;56.08
44349;BME280;30068;50.986;4.564;2023-02-02T03:30:44;102445.56;;;16.32;55.97
44349;BME280;30068;50.986;4.564;2023-02-02T03:33:09;102444.09;;;16.28;56.52
44349;BME280;30068;50.986;4.564;2023-02-02T03:35:35;102446.19;;;16.25;56.60
44349;BME280;30068;50.986;4.564;2023-02-02T03:38:00;102442.38;;;16.05;57.05
44349;BME280;30068;50.986;4.564;2023-02-02T03:40:26;102449.13;;;16.22;56.61
44349;BME280;30068;50.986;4.564;2023-02-02T03:42:52;102449.13;;;16.33;56.38
44349;BME280;30068;50.986;4.564;2023-02-02T03:45:17;102452.56;;;16.24;56.72
44349;BME280;30068;50.986;4.564;2023-02-02T03:47:42;102453.66;;;16.32;56.40
44349;BME280;30068;50.986;4.564;2023-02-02T03:50:07;102457.44;;;16.18;56.86
44349;BME280;30068;50.986;4.564;2023-02-02T03:52:33;102453.53;;;16.11;57.08
44349;BME280;30068;50.986;4.564;2023-02-02T03:54:58;102452.44;;;16.36;56.47
44349;BME280;30068;50.986;4.564;2023-02-02T03:57:23;102454.28;;;16.13;57.13
44349;BME280;30068;50.986;4.564;2023-02-02T03:59:48;102455.97;;;16.26;56.76
44349;BME280;30068;50.986;4.564;2023-02-02T04:02:14;102464.19;;;16.13;57.03
44349;BME280;30068;50.986;4.564;2023-02-02T04:04:39;102463.22;;;16.14;57.29
44349;BME280;30068;50.986;4.564;2023-02-02T04:07:04;102469.81;;;16.21;56.87
44349;BME280;30068;50.986;4.564;2023-02-02T04:09:29;102465.16;;;16.12;57.18
44349;BME280;30068;50.986;4.564;2023-02-02T04:11:54;102468.38;;;16.17;56.80
44349;BME280;30068;50.986;4.564;2023-02-02T04:14:20;102470.66;;;16.10;57.28
44349;BME280;30068;50.986;4.564;2023-02-02T04:16:45;102475.81;;;16.02;57.71
44349;BME280;30068;50.986;4.564;2023-02-02T04:19:10;102480.22;;;16.26;56.95
44349;BME280;30068;50.986;4.564;2023-02-02T04:21:36;102488.78;;;16.19;56.87
44349;BME280;30068;50.986;4.564;2023-02-02T04:24:02;102485.97;;;16.21;56.68
44349;BME280;30068;50.986;4.564;2023-02-02T04:26:27;102481.94;;;16.15;57.02
44349;BME280;30068;50.986;4.564;2023-02-02T04:28:52;102483.91;;;16.13;57.27
44349;BME280;30068;50.986;4.564;2023-02-02T04:31:18;102479.38;;;16.14;56.85
44349;BME280;30068;50.986;4.564;2023-02-02T04:33:43;102482.19;;;16.12;57.08
44349;BME280;30068;50.986;4.564;2023-02-02T04:36:08;102480.25;;;16.03;57.15
44349;BME280;30068;50.986;4.564;2023-02-02T04:38:34;102484.97;;;16.11;57.25
44349;BME280;30068;50.986;4.564;2023-02-02T04:41:04;102487.19;;;16.06;57.52
44349;BME280;30068;50.986;4.564;2023-02-02T04:43:29;102488.31;;;16.03;57.44
44349;BME280;30068;50.986;4.564;2023-02-02T04:45:55;102494.66;;;16.02;57.47
44349;BME280;30068;50.986;4.564;2023-02-02T04:48:21;102491.75;;;16.16;56.88
44349;BME280;30068;50.986;4.564;2023-02-02T04:50:46;102486.09;;;16.08;57.24
44349;BME280;30068;50.986;4.564;2023-02-02T04:53:11;102502.13;;;15.99;57.44
44349;BME280;30068;50.986;4.564;2023-02-02T04:55:36;102489.88;;;15.95;57.58
44349;BME280;30068;50.986;4.564;2023-02-02T04:58:03;102496.63;;;16.00;57.58
44349;BME280;30068;50.986;4.564;2023-02-02T05:00:28;102490.50;;;15.98;57.50
44349;BME280;30068;50.986;4.564;2023-02-02T05:02:53;102487.34;;;16.15;56.89
44349;BME280;30068;50.986;4.564;2023-02-02T05:05:18;102492.22;;;16.44;56.02
44349;BME280;30068;50.986;4.564;2023-02-02T05:07:44;102483.63;;;16.72;55.14
44349;BME280;30068;50.986;4.564;2023-02-02T05:10:10;102487.56;;;16.12;56.65
44349;BME280;30068;50.986;4.564;2023-02-02T05:12:35;102480.94;;;16.05;57.12
44349;BME280;30068;50.986;4.564;2023-02-02T05:15:00;102474.84;;;16.03;57.21
44349;BME280;30068;50.986;4.564;2023-02-02T05:17:27;102478.03;;;16.19;56.92
44349;BME280;30068;50.986;4.564;2023-02-02T05:19:52;102467.25;;;16.19;56.69
44349;BME280;30068;50.986;4.564;2023-02-02T05:22:17;102477.53;;;16.26;56.66
44349;BME280;30068;50.986;4.564;2023-02-02T05:24:43;102483.78;;;16.26;56.67
44349;BME280;30068;50.986;4.564;2023-02-02T05:27:08;102479.50;;;16.24;56.59
44349;BME280;30068;50.986;4.564;2023-02-02T05:29:33;102478.75;;;16.33;56.31
44349;BME280;30068;50.986;4.564;2023-02-02T05:31:58;102476.41;;;16.39;55.97
44349;BME280;30068;50.986;4.564;2023-02-02T05:34:23;102474.84;;;16.37;56.12
44349;BME280;30068;50.986;4.564;2023-02-02T05:36:49;102472.88;;;16.39;55.78
44349;BME280;30068;50.986;4.564;2023-02-02T05:39:14;102471.16;;;16.38;56.10
44349;BME280;30068;50.986;4.564;2023-02-02T05:41:40;102467.75;;;16.36;55.85
44349;BME280;30068;50.986;4.564;2023-02-02T05:44:05;102474.84;;;16.37;56.03
44349;BME280;30068;50.986;4.564;2023-02-02T05:46:30;102477.53;;;16.48;55.95
44349;BME280;30068;50.986;4.564;2023-02-02T05:48:55;102490.09;;;16.58;55.72
44349;BME280;30068;50.986;4.564;2023-02-02T05:51:30;102480.56;;;16.54;55.74
44349;BME280;30068;50.986;4.564;2023-02-02T05:53:58;102494.91;;;16.55;55.75
44349;BME280;30068;50.986;4.564;2023-02-02T05:56:23;102488.78;;;16.53;55.71
44349;BME280;30068;50.986;4.564;2023-02-02T05:58:48;102496.75;;;16.54;55.61
44349;BME280;30068;50.986;4.564;2023-02-02T06:01:16;102500.53;;;16.52;55.91
44349;BME280;30068;50.986;4.564;2023-02-02T06:03:41;102496.63;;;16.56;55.94
44349;BME280;30068;50.986;4.564;2023-02-02T06:06:07;102498.84;;;16.51;56.15
44349;BME280;30068;50.986;4.564;2023-02-02T06:08:32;102502.53;;;16.61;56.01
44349;BME280;30068;50.986;4.564;2023-02-02T06:10:58;102495.66;;;16.68;55.85
44349;BME280;30068;50.986;4.564;2023-02-02T06:13:23;102500.31;;;16.66;55.98
44349;BME280;30068;50.986;4.564;2023-02-02T06:15:49;102501.03;;;16.68;55.86
44349;BME280;30068;50.986;4.564;2023-02-02T06:18:14;102505.66;;;16.88;55.02
44349;BME280;30068;50.986;4.564;2023-02-02T06:20:39;102511.94;;;16.78;55.46
44349;BME280;30068;50.986;4.564;2023-02-02T06:23:04;102515.50;;;16.78;55.55
44349;BME280;30068;50.986;4.564;2023-02-02T06:25:30;102516.72;;;16.74;55.67
44349;BME280;30068;50.986;4.564;2023-02-02T06:27:59;102511.59;;;16.71;55.93
44349;BME280;30068;50.986;4.564;2023-02-02T06:30:24;102521.63;;;16.69;56.11
44349;BME280;30068;50.986;4.564;2023-02-02T06:32:50;102511.22;;;16.65;56.32
44349;BME280;30068;50.986;4.564;2023-02-02T06:35:15;102521.25;;;16.74;55.88
44349;BME280;30068;50.986;4.564;2023-02-02T06:37:40;102512.81;;;16.67;56.46
44349;BME280;30068;50.986;4.564;2023-02-02T06:40:06;102513.53;;;16.58;56.54
44349;BME280;30068;50.986;4.564;2023-02-02T06:42:31;102522.72;;;16.67;56.08
44349;BME280;30068;50.986;4.564;2023-02-02T06:44:57;102523.06;;;16.73;55.85
44349;BME280;30068;50.986;4.564;2023-02-02T06:47:22;102523.81;;;16.75;56.00
44349;BME280;30068;50.986;4.564;2023-02-02T06:49:47;102522.22;;;16.73;55.97
44349;BME280;30068;50.986;4.564;2023-02-02T06:52:12;102519.69;;;16.71;56.25
44349;BME280;30068;50.986;4.564;2023-02-02T06:54:37;102529.84;;;16.68;56.03
44349;BME280;30068;50.986;4.564;2023-02-02T06:57:02;102528.75;;;16.70;55.92
44349;BME280;30068;50.986;4.564;2023-02-02T06:59:28;102533.38;;;16.68;56.21
44349;BME280;30068;50.986;4.564;2023-02-02T07:01:53;102532.88;;;16.74;56.10
44349;BME280;30068;50.986;4.564;2023-02-02T07:04:18;102535.09;;;16.69;56.07
44349;BME280;30068;50.986;4.564;2023-02-02T07:06:44;102535.59;;;16.74;56.09
44349;BME280;30068;50.986;4.564;2023-02-02T07:09:09;102544.16;;;16.68;56.26
44349;BME280;30068;50.986;4.564;2023-02-02T07:11:34;102540.72;;;16.66;56.32
44349;BME280;30068;50.986;4.564;2023-02-02T07:14:00;102550.91;;;16.63;56.48
44349;BME280;30068;50.986;4.564;2023-02-02T07:16:26;102547.38;;;16.62;56.28
44349;BME280;30068;50.986;4.564;2023-02-02T07:18:51;102550.91;;;16.63;56.29
44349;BME280;30068;50.986;4.564;2023-02-02T07:21:18;102560.84;;;16.62;56.76
44349;BME280;30068;50.986;4.564;2023-02-02T07:23:43;102570.38;;;16.55;56.77
44349;BME280;30068;50.986;4.564;2023-02-02T07:26:09;102558.38;;;16.70;56.05
44349;BME280;30068;50.986;4.564;2023-02-02T07:28:35;102551.75;;;16.74;55.90
44349;BME280;30068;50.986;4.564;2023-02-02T07:31:10;102559.84;;;16.74;55.99
44349;BME280;30068;50.986;4.564;2023-02-02T07:33:36;102564.00;;;16.67;56.43
44349;BME280;30068;50.986;4.564;2023-02-02T07:36:04;102557.16;;;16.63;56.57
44349;BME280;30068;50.986;4.564;2023-02-02T07:38:29;102552.63;;;16.64;56.53
44349;BME280;30068;50.986;4.564;2023-02-02T07:40:54;102561.31;;;16.67;56.11
44349;BME280;30068;50.986;4.564;2023-02-02T07:43:19;102558.25;;;16.61;56.65
44349;BME280;30068;50.986;4.564;2023-02-02T07:45:45;102551.50;;;16.66;56.19
44349;BME280;30068;50.986;4.564;2023-02-02T07:48:10;102550.66;;;16.66;55.96
44349;BME280;30068;50.986;4.564;2023-02-02T07:50:36;102560.34;;;16.68;56.15
44349;BME280;30068;50.986;4.564;2023-02-02T07:53:01;102553.00;;;16.70;55.88
44349;BME280;30068;50.986;4.564;2023-02-02T07:55:26;102558.63;;;16.67;55.95
44349;BME280;30068;50.986;4.564;2023-02-02T07:57:51;102547.84;;;16.67;56.22
44349;BME280;30068;50.986;4.564;2023-02-02T08:00:19;102553.63;;;16.63;56.12
44349;BME280;30068;50.986;4.564;2023-02-02T08:02:47;102565.97;;;16.65;56.19
44349;BME280;30068;50.986;4.564;2023-02-02T08:05:12;102560.47;;;16.67;56.27
44349;BME280;30068;50.986;4.564;2023-02-02T08:07:37;102559.09;;;16.72;56.38
44349;BME280;30068;50.986;4.564;2023-02-02T08:10:03;102561.41;;;16.54;56.65
44349;BME280;30068;50.986;4.564;2023-02-02T08:12:28;102559.19;;;16.59;56.82
44349;BME280;30068;50.986;4.564;2023-02-02T08:14:53;102563.50;;;16.73;56.38
44349;BME280;30068;50.986;4.564;2023-02-02T08:17:18;102563.00;;;16.79;55.96
44349;BME280;30068;50.986;4.564;2023-02-02T08:19:44;102545.63;;;16.72;56.14
44349;BME280;30068;50.986;4.564;2023-02-02T08:22:09;102561.69;;;16.74;56.25
44349;BME280;30068;50.986;4.564;2023-02-02T08:24:35;102559.09;;;16.72;56.28
44349;BME280;30068;50.986;4.564;2023-02-02T08:27:04;102566.22;;;16.73;56.46
44349;BME280;30068;50.986;4.564;2023-02-02T08:29:30;102568.91;;;16.73;56.32
44349;BME280;30068;50.986;4.564;2023-02-02T08:31:55;102568.66;;;16.76;56.31
44349;BME280;30068;50.986;4.564;2023-02-02T08:34:20;102575.91;;;16.76;56.49
44349;BME280;30068;50.986;4.564;2023-02-02T08:36:45;102574.06;;;16.76;56.40
44349;BME280;30068;50.986;4.564;2023-02-02T08:39:11;102579.47;;;16.76;56.48
44349;BME280;30068;50.986;4.564;2023-02-02T08:41:36;102580.19;;;16.78;56.37
44349;BME280;30068;50.986;4.564;2023-02-02T08:44:06;102578.47;;;16.77;56.33
44349;BME280;30068;50.986;4.564;2023-02-02T08:46:31;102588.50;;;16.97;55.79
44349;BME280;30068;50.986;4.564;2023-02-02T08:48:56;102591.09;;;16.77;56.06
44349;BME280;30068;50.986;4.564;2023-02-02T08:51:22;102597.00;;;16.71;56.15
44349;BME280;30068;50.986;4.564;2023-02-02T08:53:47;102602.00;;;16.64;56.19
44349;BME280;30068;50.986;4.564;2023-02-02T08:56:14;102601.03;;;16.76;55.64
44349;BME280;30068;50.986;4.564;2023-02-02T08:58:39;102609.34;;;16.84;55.32
44349;BME280;30068;50.986;4.564;2023-02-02T09:01:10;102604.56;;;16.88;55.21
44349;BME280;30068;50.986;4.564;2023-02-02T09:03:37;102608.72;;;16.81;55.57
44349;BME280;30068;50.986;4.564;2023-02-02T09:06:05;102615.97;;;16.80;55.64
44349;BME280;30068;50.986;4.564;2023-02-02T09:08:30;102613.38;;;16.79;55.61
44349;BME280;30068;50.986;4.564;2023-02-02T09:11:01;102634.13;;;16.78;55.34
44349;BME280;30068;50.986;4.564;2023-02-02T09:13:26;102647.59;;;16.89;55.19
44349;BME280;30068;50.986;4.564;2023-02-02T09:15:51;102639.00;;;16.95;55.09
44349;BME280;30068;50.986;4.564;2023-02-02T09:18:16;102635.81;;;16.90;55.23
44349;BME280;30068;50.986;4.564;2023-02-02T09:20:42;102630.78;;;16.97;55.14
44349;BME280;30068;50.986;4.564;2023-02-02T09:23:07;102635.81;;;16.90;55.29
44349;BME280;30068;50.986;4.564;2023-02-02T09:25:32;102632.38;;;16.99;54.91
44349;BME280;30068;50.986;4.564;2023-02-02T09:27:57;102644.75;;;17.02;54.81
44349;BME280;30068;50.986;4.564;2023-02-02T09:30:23;102649.78;;;17.07;54.63
44349;BME280;30068;50.986;4.564;2023-02-02T09:32:48;102643.03;;;17.01;54.77
44349;BME280;30068;50.986;4.564;2023-02-02T09:35:14;102659.47;;;16.98;55.33
44349;BME280;30068;50.986;4.564;2023-02-02T09:37:39;102651.41;;;16.98;55.38
44349;BME280;30068;50.986;4.564;2023-02-02T09:40:05;102662.53;;;16.93;55.75
44349;BME280;30068;50.986;4.564;2023-02-02T09:55:36;102684.84;;;17.07;55.41
44349;BME280;30068;50.986;4.564;2023-02-02T10:00:47;102681.91;;;16.98;55.66
44349;BME280;30068;50.986;4.564;2023-02-02T10:03:34;102677.63;;;16.96;55.56
44349;BME280;30068;50.986;4.564;2023-02-02T10:06:03;102685.31;;;17.01;55.59
44349;BME280;30068;50.986;4.564;2023-02-02T10:08:32;102692.94;;;16.95;56.01
44349;BME280;30068;50.986;4.564;2023-02-02T10:10:59;102696.00;;;16.91;56.21
44349;BME280;30068;50.986;4.564;2023-02-02T10:13:27;102691.47;;;16.91;56.24
44349;BME280;30068;50.986;4.564;2023-02-02T10:16:05;102696.88;;;16.91;56.32
44349;BME280;30068;50.986;4.564;2023-02-02T10:18:38;102703.94;;;16.92;56.08
44349;BME280;30068;50.986;4.564;2023-02-02T10:21:07;102696.34;;;16.86;56.06
44349;BME280;30068;50.986;4.564;2023-02-02T10:23:35;102705.19;;;16.77;55.95
44349;BME280;30068;50.986;4.564;2023-02-02T10:28:44;102708.00;;;16.87;55.89
44349;BME280;30068;50.986;4.564;2023-02-02T10:31:17;102718.16;;;16.72;56.00
44349;BME280;30068;50.986;4.564;2023-02-02T10:33:44;102707.41;;;16.83;55.88
44349;BME280;30068;50.986;4.564;2023-02-02T10:36:17;102715.59;;;16.71;56.27
44349;BME280;30068;50.986;4.564;2023-02-02T10:38:47;102713.88;;;16.70;56.48
44349;BME280;30068;50.986;4.564;2023-02-02T10:41:23;102713.00;;;16.69;56.56
44349;BME280;30068;50.986;4.564;2023-02-02T10:51:31;102713.50;;;16.63;56.55
44349;BME280;30068;50.986;4.564;2023-02-02T10:53:56;102713.53;;;16.85;55.93
44349;BME280;30068;50.986;4.564;2023-02-02T10:56:36;102710.53;;;16.66;56.18
44349;BME280;30068;50.986;4.564;2023-02-02T10:59:12;102714.47;;;16.62;56.27
44349;BME280;30068;50.986;4.564;2023-02-02T11:01:39;102719.97;;;16.61;56.18
44349;BME280;30068;50.986;4.564;2023-02-02T11:04:04;102725.78;;;16.78;55.79
44349;BME280;30068;50.986;4.564;2023-02-02T11:06:48;102726.56;;;16.56;56.17
44349;BME280;30068;50.986;4.564;2023-02-02T11:09:14;102717.06;;;16.64;55.82
44349;BME280;30068;50.986;4.564;2023-02-02T11:11:40;102718.09;;;16.50;56.42
44349;BME280;30068;50.986;4.564;2023-02-02T11:16:33;102725.81;;;16.54;56.21
44349;BME280;30068;50.986;4.564;2023-02-02T11:18:58;102717.84;;;16.53;56.14
44349;BME280;30068;50.986;4.564;2023-02-02T11:21:27;102712.25;;;16.67;55.70
44349;BME280;30068;50.986;4.564;2023-02-02T11:23:54;102711.97;;;16.59;56.21
44349;BME280;30068;50.986;4.564;2023-02-02T11:26:21;102700.41;;;16.46;55.95
44349;BME280;30068;50.986;4.564;2023-02-02T11:28:47;102698.69;;;16.45;56.27
44349;BME280;30068;50.986;4.564;2023-02-02T11:31:14;102700.31;;;16.47;56.36
44349;BME280;30068;50.986;4.564;2023-02-02T11:33:53;102705.59;;;16.49;56.50
44349;BME280;30068;50.986;4.564;2023-02-02T11:36:19;102706.69;;;16.46;56.35
44349;BME280;30068;50.986;4.564;2023-02-02T11:38:45;102707.06;;;16.53;56.03
44349;BME280;30068;50.986;4.564;2023-02-02T11:41:10;102701.28;;;16.46;56.20
44349;BME280;30068;50.986;4.564;2023-02-02T11:46:22;102695.59;;;16.62;55.78
44349;BME280;30068;50.986;4.564;2023-02-02T11:48:55;102705.81;;;16.46;56.20
44349;BME280;30068;50.986;4.564;2023-02-02T11:51:23;102699.41;;;16.71;55.59
44349;BME280;30068;50.986;4.564;2023-02-02T11:53:49;102697.56;;;16.60;55.60
44349;BME280;30068;50.986;4.564;2023-02-02T11:56:24;102699.94;;;16.41;56.23
44349;BME280;30068;50.986;4.564;2023-02-02T11:58:51;102708.00;;;16.41;56.19
44349;BME280;30068;50.986;4.564;2023-02-02T12:03:48;102696.34;;;16.29;56.54
44349;BME280;30068;50.986;4.564;2023-02-02T12:06:20;102693.09;;;16.48;56.06
44349;BME280;30068;50.986;4.564;2023-02-02T12:08:46;102696.28;;;16.53;55.36
44349;BME280;30068;50.986;4.564;2023-02-02T12:11:16;102682.19;;;16.49;55.61
44349;BME280;30068;50.986;4.564;2023-02-02T12:13:48;102692.53;;;16.32;56.14
44349;BME280;30068;50.986;4.564;2023-02-02T12:16:25;102692.69;;;16.30;56.50
44349;BME280;30068;50.986;4.564;2023-02-02T12:24:40;102688.78;;;16.45;55.46
44349;BME280;30068;50.986;4.564;2023-02-02T12:26:48;102701.53;;;16.43;55.76
44349;BME280;30068;50.986;4.564;2023-02-02T12:31:51;102694.81;;;16.49;55.26
44349;BME280;30068;50.986;4.564;2023-02-02T12:36:59;102690.75;;;16.43;55.58
44349;BME280;30068;50.986;4.564;2023-02-02T12:42:27;102691.63;;;16.44;55.45
44349;BME280;30068;50.986;4.564;2023-02-02T12:45:07;102678.34;;;16.30;56.16
44349;BME280;30068;50.986;4.564;2023-02-02T12:47:41;102674.44;;;16.34;55.96
44349;BME280;30068;50.986;4.564;2023-02-02T12:52:42;102675.03;;;16.26;56.46
44349;BME280;30068;50.986;4.564;2023-02-02T13:03:14;102665.59;;;16.20;56.65
44349;BME280;30068;50.986;4.564;2023-02-02T13:08:19;102657.66;;;16.30;56.23
44349;BME280;30068;50.986;4.564;2023-02-02T13:10:46;102667.31;;;16.33;56.12
44349;BME280;30068;50.986;4.564;2023-02-02T13:13:16;102652.78;;;16.35;56.17
44349;BME280;30068;50.986;4.564;2023-02-02T13:15:43;102661.34;;;16.29;56.26
44349;BME280;30068;50.986;4.564;2023-02-02T13:18:17;102652.28;;;16.30;56.09
44349;BME280;30068;50.986;4.564;2023-02-02T13:20:47;102653.47;;;16.26;56.21
44349;BME280;30068;50.986;4.564;2023-02-02T13:23:17;102660.81;;;16.24;56.29
44349;BME280;30068;50.986;4.564;2023-02-02T13:25:48;102645.97;;;16.18;56.47
44349;BME280;30068;50.986;4.564;2023-02-02T13:28:16;102645.88;;;16.20;56.41
44349;BME280;30068;50.986;4.564;2023-02-02T13:30:43;102644.91;;;16.21;55.99
44349;BME280;30068;50.986;4.564;2023-02-02T13:33:12;102657.03;;;16.27;55.84
44349;BME280;30068;50.986;4.564;2023-02-02T13:35:50;102651.09;;;15.75;54.30
44349;BME280;30068;50.986;4.564;2023-02-02T13:38:24;102655.88;;;15.83;55.09
44349;BME280;30068;50.986;4.564;2023-02-02T13:40:50;102656.34;;;15.77;55.09
44349;BME280;30068;50.986;4.564;2023-02-02T13:48:46;102646.31;;;16.03;55.33
44349;BME280;30068;50.986;4.564;2023-02-02T13:56:57;102639.88;;;16.16;56.27
44349;BME280;30068;50.986;4.564;2023-02-02T13:59:42;102635.56;;;16.14;56.13
44349;BME280;30068;50.986;4.564;2023-02-02T14:04:54;102626.41;;;16.16;56.07
44349;BME280;30068;50.986;4.564;2023-02-02T14:09:57;102622.31;;;16.11;56.66
44349;BME280;30068;50.986;4.564;2023-02-02T14:12:27;102627.59;;;16.12;56.51
44349;BME280;30068;50.986;4.564;2023-02-02T14:14:54;102626.41;;;16.16;56.45
44349;BME280;30068;50.986;4.564;2023-02-02T14:19:51;102644.00;;;16.09;56.24
44349;BME280;30068;50.986;4.564;2023-02-02T14:22:18;102647.88;;;15.94;56.77
44349;BME280;30068;50.986;4.564;2023-02-02T14:24:44;102659.84;;;15.90;57.10
44349;BME280;30068;50.986;4.564;2023-02-02T14:29:40;102663.84;;;16.08;56.99
44349;BME280;30068;50.986;4.564;2023-02-02T14:34:51;102664.69;;;16.09;57.13